CST,Max TemperatureF,Mean TemperatureF,Min TemperatureF,Max Dew PointF,MeanDew PointF,Min DewpointF,Max Humidity, Mean Humidity, Min Humidity, Max Sea Level PressureIn, Mean Sea Level PressureIn, Min Sea Level PressureIn, Max VisibilityMiles, Mean VisibilityMiles, Min VisibilityMiles, Max Wind SpeedMPH, Mean Wind SpeedMPH, Max Gust SpeedMPH,PrecipitationIn, CloudCover, Events, WindDirDegrees
2012-12-1,71,59,46,50,47,44,93,67,41,30.35,30.29,30.25,10,9,6,13,4,17,0.00,3,,144
2012-12-2,73,62,50,51,48,44,83,62,41,30.36,30.29,30.24,10,10,10,14,4,18,0.00,1,,161
2012-12-3,73,60,46,53,50,45,93,70,46,30.32,30.25,30.21,10,10,10,17,4,22,0.00,1,,179
2012-12-4,71,63,54,62,58,50,100,86,72,30.31,30.24,30.19,10,9,3,16,5,20,0.10,7,Rain,195
2012-12-5,66,62,57,61,58,45,100,86,72,30.24,30.18,30.11,10,8,2,12,5,16,T,7,Rain,30
2012-12-6,72,62,52,53,50,46,83,64,44,30.13,30.07,30.01,10,10,10,15,6,21,0.00,1,,106
2012-12-7,66,61,56,56,54,52,86,77,67,30.06,30.00,29.96,10,10,10,13,5,18,0.00,7,,152
2012-12-8,65,62,59,61,59,56,97,91,84,30.04,30.00,29.96,10,9,6,10,3,14,T,7,Rain,159
2012-12-9,69,63,57,61,58,55,100,82,63,30.09,30.00,29.88,10,10,8,18,7,24,0.00,4,,166
2012-12-10,68,54,40,63,56,35,100,91,81,29.98,29.84,29.73,10,6,1,24,11,29,1.58,8,Rain-Thunderstorm,236
2012-12-11,41,39,36,35,30,29,85,73,60,30.22,30.12,29.99,10,10,8,15,7,18,0.00,4,,2
2012-12-12,56,45,33,33,29,26,82,63,44,30.32,30.25,30.21,10,10,10,14,5,17,0.00,1,,8
2012-12-13,60,45,30,36,32,27,92,64,36,30.40,30.34,30.29,10,10,10,9,1,12,0.00,0,,64
2012-12-14,61,48,35,41,37,33,92,67,42,30.37,30.28,30.17,10,10,10,10,3,15,0.00,0,,92
2012-12-15,62,57,52,54,48,41,78,67,55,30.19,30.09,30.00,10,10,10,14,7,21,T,8,Rain,165
2012-12-16,62,60,57,61,57,54,100,89,78,30.01,29.94,29.85,10,6,2,22,7,29,1.45,7,Rain,141
2012-12-17,63,57,51,58,55,48,93,86,78,29.85,29.79,29.71,10,10,6,15,8,22,T,6,,205
2012-12-18,62,50,38,46,37,26,100,64,27,30.03,29.97,29.85,10,10,4,16,4,20,0.00,0,,218
2012-12-19,70,56,41,44,39,33,89,60,30,30.11,30.03,29.96,10,10,10,13,4,17,0.00,0,,171
2012-12-20,62,51,40,61,45,22,100,73,45,30.08,29.84,29.71,10,7,0,37,16,51,0.75,7,Fog-Rain,218
2012-12-21,49,41,33,21,16,11,56,40,23,30.34,30.22,30.09,10,10,10,23,13,36,0.00,0,,293
2012-12-22,54,40,26,26,18,7,85,53,20,30.40,30.32,30.24,10,10,10,9,3,13,0.00,0,,313
2012-12-23,55,43,30,47,32,26,85,60,35,30.23,30.12,29.98,10,10,10,15,4,22,0.10,5,Rain,186
2012-12-24,67,55,43,57,51,42,100,74,48,29.98,29.90,29.84,10,8,2,18,5,26,0.55,5,Rain,226
2012-12-25,56,50,43,54,50,42,100,93,86,29.99,29.79,29.50,10,6,2,22,9,35,1.39,7,Rain-Thunderstorm,90
2012-12-26,58,46,33,55,35,28,93,83,73,30.16,29.81,29.48,10,9,2,31,16,38,0.01,8,Rain-Snow,263
2012-12-27,39,34,29,30,28,27,92,81,70,30.21,30.15,30.12,10,10,7,15,5,17,0.00,5,,336
2012-12-28,46,39,32,41,35,28,92,73,53,30.13,29.96,29.81,10,9,5,15,5,22,0.53,8,Rain,107
2012-12-29,44,38,31,43,32,22,92,76,59,30.40,30.11,29.85,10,10,2,22,12,28,0.03,8,,298
2012-12-30,49,38,26,28,23,21,82,58,34,30.53,30.44,30.38,10,10,8,16,4,22,0.00,1,,355
2012-12-31,52,43,34,41,30,23,75,59,42,30.40,30.28,30.09,10,10,10,15,4,24,0.00,4,,151